Wetterdaten: Woche 18.07.16 - 24.07.16 (KW29)
Datum Zeit Temp. A. Feuchte A. Luftdruck Regen Wind Richtung Sonnenschein ET UV Solar Taupunkt Windchill Windben Empfang
18.07.2016 00:00 16,4 C 96 % 1020,0 hPa 4,2 l/m 2,9 km/h (1 Bft) NO 0,00 h 0,000 mm 0,0 UV-I 0 W/m 15,6 C 16,4 C 4,6 km/h (1 Bft) 98,54 %
18.07.2016 01:00 16,2 C 96 % 1020,1 hPa 0,4 l/m 1,3 km/h (1 Bft) S 0,00 h 0,000 mm 0,0 UV-I 0 W/m 15,6 C 16,2 C 2,9 km/h (1 Bft) 98,07 %
18.07.2016 02:00 16,0 C 97 % 1020,0 hPa 0,0 l/m 1,5 km/h (1 Bft) W-SW 0,00 h 0,000 mm 0,0 UV-I 0 W/m 15,5 C 16,0 C 2,8 km/h (1 Bft) 98,50 %
18.07.2016 03:00 15,9 C 97 % 1019,5 hPa 0,0 l/m 1,2 km/h (1 Bft) S 0,00 h 0,000 mm 0,0 UV-I 0 W/m 15,4 C 15,9 C 3,0 km/h (1 Bft) 98,57 %
18.07.2016 04:00 15,5 C 97 % 1019,2 hPa 0,0 l/m 1,0 km/h (0 Bft) S-SW 0,00 h 0,000 mm 0,0 UV-I 0 W/m 15,0 C 15,5 C 2,2 km/h (1 Bft) 98,11 %
18.07.2016 05:00 15,3 C 97 % 1019,5 hPa 0,0 l/m 0,2 km/h (0 Bft) S-SW 0,00 h 0,000 mm 0,0 UV-I 9 W/m 14,9 C 15,3 C 0,4 km/h (0 Bft) 98,12 %
18.07.2016 06:00 15,5 C 97 % 1019,9 hPa 0,0 l/m 3,7 km/h (1 Bft) S-SW 0,00 h 0,000 mm 0,0 UV-I 35 W/m 15,1 C 15,5 C 6,1 km/h (2 Bft) 98,52 %
18.07.2016 07:00 16,4 C 96 % 1020,0 hPa 0,0 l/m 2,1 km/h (1 Bft) SW 0,00 h 0,025 mm 0,0 UV-I 74 W/m 15,7 C 16,4 C 4,1 km/h (1 Bft) 97,56 %
18.07.2016 08:00 17,3 C 94 % 1020,1 hPa 0,0 l/m 2,1 km/h (1 Bft) S-SW 0,00 h 0,051 mm 0,8 UV-I 140 W/m 16,3 C 17,3 C 4,0 km/h (1 Bft) 98,11 %
18.07.2016 09:00 18,9 C 88 % 1020,0 hPa 0,0 l/m 6,0 km/h (2 Bft) W-SW 0,10 h 0,076 mm 1,8 UV-I 301 W/m 17,0 C 18,7 C 10,0 km/h (2 Bft) 98,36 %
18.07.2016 10:00 20,3 C 85 % 1020,1 hPa 0,0 l/m 9,1 km/h (2 Bft) W 0,53 h 0,178 mm 3,6 UV-I 553 W/m 17,7 C 19,3 C 15,8 km/h (3 Bft) 98,25 %
18.07.2016 11:00 22,0 C 80 % 1020,0 hPa 0,0 l/m 10,1 km/h (2 Bft) SW 0,93 h 0,330 mm 5,7 UV-I 838 W/m 18,4 C 20,9 C 16,6 km/h (3 Bft) 98,39 %
18.07.2016 12:00 23,2 C 74 % 1019,8 hPa 0,0 l/m 10,6 km/h (2 Bft) SW 0,63 h 0,483 mm 4,8 UV-I 634 W/m 18,2 C 22,0 C 17,6 km/h (3 Bft) 98,16 %
18.07.2016 13:00 24,4 C 66 % 1019,4 hPa 0,0 l/m 8,1 km/h (2 Bft) W-SW 0,80 h 0,406 mm 6,3 UV-I 854 W/m 17,7 C 23,8 C 14,9 km/h (3 Bft) 98,42 %
18.07.2016 14:00 25,2 C 62 % 1018,8 hPa 0,0 l/m 8,8 km/h (2 Bft) W-SW 0,73 h 0,534 mm 5,6 UV-I 707 W/m 17,2 C 24,6 C 16,6 km/h (3 Bft) 97,97 %
18.07.2016 15:00 25,6 C 57 % 1018,4 hPa 0,0 l/m 7,9 km/h (2 Bft) W 0,53 h 0,482 mm 3,5 UV-I 475 W/m 16,5 C 25,3 C 14,8 km/h (3 Bft) 98,73 %
18.07.2016 16:00 24,9 C 63 % 1018,3 hPa 0,0 l/m 11,1 km/h (2 Bft) S-SW 0,43 h 0,356 mm 2,4 UV-I 407 W/m 17,4 C 23,9 C 18,7 km/h (3 Bft) 97,83 %
18.07.2016 17:00 24,8 C 64 % 1018,0 hPa 0,0 l/m 10,8 km/h (2 Bft) SW 0,50 h 0,330 mm 1,5 UV-I 321 W/m 17,4 C 23,8 C 17,1 km/h (3 Bft) 99,15 %
18.07.2016 18:00 24,6 C 66 % 1017,9 hPa 0,0 l/m 9,4 km/h (2 Bft) S-SW 0,50 h 0,254 mm 0,7 UV-I 212 W/m 17,8 C 23,8 C 15,5 km/h (3 Bft) 97,85 %
18.07.2016 19:00 24,0 C 69 % 1018,0 hPa 0,0 l/m 8,7 km/h (2 Bft) SW 0,37 h 0,178 mm 0,0 UV-I 106 W/m 17,9 C 23,4 C 14,2 km/h (3 Bft) 99,15 %
18.07.2016 20:00 21,6 C 76 % 1018,3 hPa 0,0 l/m 9,7 km/h (2 Bft) SW 0,13 h 0,102 mm 0,0 UV-I 22 W/m 17,3 C 20,6 C 14,6 km/h (3 Bft) 97,67 %
18.07.2016 21:00 19,9 C 82 % 1018,8 hPa 0,0 l/m 5,7 km/h (1 Bft) S 0,00 h 0,050 mm 0,0 UV-I 2 W/m 16,7 C 19,8 C 8,1 km/h (2 Bft) 98,97 %
18.07.2016 22:00 18,9 C 86 % 1019,0 hPa 0,0 l/m 5,9 km/h (2 Bft) S 0,00 h 0,026 mm 0,0 UV-I 0 W/m 16,4 C 18,8 C 8,3 km/h (2 Bft) 98,11 %
18.07.2016 23:00 18,2 C 89 % 1019,3 hPa 0,0 l/m 4,7 km/h (1 Bft) S 0,00 h 0,025 mm 0,0 UV-I 0 W/m 16,4 C 18,2 C 7,7 km/h (2 Bft) 99,30 %
19.07.2016 00:00 17,6 C 92 % 1019,7 hPa 0,0 l/m 3,8 km/h (1 Bft) S 0,00 h 0,000 mm 0,0 UV-I 0 W/m 16,2 C 17,6 C 5,7 km/h (1 Bft) 97,77 %
19.07.2016 01:00 17,1 C 93 % 1019,8 hPa 0,0 l/m 2,8 km/h (1 Bft) S 0,00 h 0,000 mm 0,0 UV-I 0 W/m 15,9 C 17,1 C 4,6 km/h (1 Bft) 99,08 %
19.07.2016 02:00 16,7 C 94 % 1019,9 hPa 0,0 l/m 3,4 km/h (1 Bft) S-SW 0,00 h 0,000 mm 0,0 UV-I 0 W/m 15,7 C 16,7 C 5,1 km/h (1 Bft) 98,08 %
19.07.2016 03:00 16,2 C 94 % 1019,9 hPa 0,0 l/m 1,6 km/h (1 Bft) S 0,00 h 0,000 mm 0,0 UV-I 0 W/m 15,2 C 16,2 C 3,0 km/h (1 Bft) 98,83 %
19.07.2016 04:00 15,0 C 96 % 1019,9 hPa 0,0 l/m 0,5 km/h (0 Bft) S 0,00 h 0,000 mm 0,0 UV-I 0 W/m 14,3 C 15,0 C 1,0 km/h (0 Bft) 97,11 %
19.07.2016 05:00 14,3 C 96 % 1019,8 hPa 0,0 l/m 0,5 km/h (0 Bft) S 0,03 h 0,000 mm 0,0 UV-I 11 W/m 13,7 C 14,3 C 1,1 km/h (1 Bft) 98,63 %
19.07.2016 06:00 15,1 C 97 % 1020,0 hPa 0,0 l/m 2,2 km/h (1 Bft) S 0,07 h 0,000 mm 0,0 UV-I 47 W/m 14,5 C 15,1 C 3,8 km/h (1 Bft) 97,94 %
19.07.2016 07:00 17,2 C 94 % 1020,4 hPa 0,0 l/m 2,1 km/h (1 Bft) SW 1,00 h 0,025 mm 0,7 UV-I 215 W/m 16,2 C 17,2 C 4,2 km/h (1 Bft) 98,59 %
19.07.2016 08:00 19,2 C 86 % 1020,3 hPa 0,0 l/m 3,5 km/h (1 Bft) S-SW 1,00 h 0,127 mm 1,5 UV-I 395 W/m 16,9 C 19,2 C 6,2 km/h (2 Bft) 97,85 %
19.07.2016 09:00 21,5 C 77 % 1020,3 hPa 0,0 l/m 2,8 km/h (1 Bft) W-SW 1,00 h 0,229 mm 3,0 UV-I 493 W/m 17,3 C 21,5 C 5,5 km/h (1 Bft) 98,34 %
19.07.2016 10:00 23,7 C 62 % 1020,1 hPa 0,0 l/m 3,0 km/h (1 Bft) N-NO 1,00 h 0,305 mm 4,6 UV-I 688 W/m 16,0 C 23,7 C 6,1 km/h (2 Bft) 98,07 %
19.07.2016 11:00 25,1 C 53 % 1020,0 hPa 0,0 l/m 3,8 km/h (1 Bft) N-NW 1,00 h 0,432 mm 6,0 UV-I 792 W/m 14,8 C 25,1 C 8,1 km/h (2 Bft) 98,94 %
19.07.2016 12:00 25,8 C 50 % 1019,8 hPa 0,0 l/m 5,0 km/h (1 Bft) W 1,00 h 0,533 mm 6,7 UV-I 870 W/m 14,6 C 25,7 C 10,5 km/h (2 Bft) 97,59 %
19.07.2016 13:00 26,9 C 48 % 1019,5 hPa 0,0 l/m 4,8 km/h (1 Bft) W-NW 1,00 h 0,584 mm 7,0 UV-I 892 W/m 14,8 C 26,8 C 10,0 km/h (2 Bft) 98,79 %
19.07.2016 14:00 27,4 C 45 % 1019,1 hPa 0,0 l/m 6,3 km/h (2 Bft) W 1,00 h 0,610 mm 6,5 UV-I 849 W/m 14,6 C 27,3 C 12,0 km/h (2 Bft) 97,69 %
19.07.2016 15:00 27,8 C 43 % 1018,6 hPa 0,0 l/m 7,3 km/h (2 Bft) W 1,00 h 0,609 mm 5,1 UV-I 761 W/m 14,0 C 27,6 C 14,1 km/h (3 Bft) 99,14 %
19.07.2016 16:00 28,2 C 41 % 1018,1 hPa 0,0 l/m 4,7 km/h (1 Bft) W 1,00 h 0,559 mm 3,5 UV-I 638 W/m 13,8 C 28,2 C 9,7 km/h (2 Bft) 97,71 %
19.07.2016 17:00 28,3 C 41 % 1017,7 hPa 0,0 l/m 3,9 km/h (1 Bft) W 1,00 h 0,457 mm 2,0 UV-I 485 W/m 13,6 C 28,2 C 8,5 km/h (2 Bft) 99,18 %
19.07.2016 18:00 27,8 C 42 % 1017,4 hPa 0,0 l/m 2,7 km/h (1 Bft) NW 1,00 h 0,356 mm 0,9 UV-I 317 W/m 13,6 C 27,8 C 6,5 km/h (2 Bft) 98,07 %
19.07.2016 19:00 26,8 C 48 % 1017,3 hPa 0,0 l/m 2,6 km/h (1 Bft) N 0,80 h 0,229 mm 0,4 UV-I 142 W/m 14,7 C 26,8 C 6,1 km/h (2 Bft) 99,15 %
19.07.2016 20:00 23,5 C 64 % 1017,4 hPa 0,0 l/m 2,8 km/h (1 Bft) N-NO 0,03 h 0,127 mm 0,0 UV-I 20 W/m 16,4 C 23,5 C 5,1 km/h (1 Bft) 98,22 %
19.07.2016 21:00 20,9 C 76 % 1017,4 hPa 0,0 l/m 0,5 km/h (0 Bft) NO 0,00 h 0,025 mm 0,0 UV-I 0 W/m 16,5 C 20,9 C 1,4 km/h (1 Bft) 98,61 %
19.07.2016 22:00 19,5 C 81 % 1017,5 hPa 0,0 l/m 1,0 km/h (0 Bft) O-SO 0,00 h 0,000 mm 0,0 UV-I 0 W/m 16,2 C 19,5 C 1,9 km/h (1 Bft) 98,28 %
19.07.2016 23:00 18,6 C 85 % 1017,5 hPa 0,0 l/m 1,1 km/h (1 Bft) SO 0,00 h 0,000 mm 0,0 UV-I 0 W/m 15,9 C 18,6 C 2,1 km/h (1 Bft) 98,41 %
20.07.2016 00:00 18,0 C 86 % 1017,5 hPa 0,0 l/m 1,6 km/h (1 Bft) S-SO 0,00 h 0,000 mm 0,0 UV-I 0 W/m 15,6 C 18,0 C 3,0 km/h (1 Bft) 97,93 %
20.07.2016 01:00 17,0 C 88 % 1017,5 hPa 0,0 l/m 1,5 km/h (1 Bft) S-SO 0,00 h 0,000 mm 0,0 UV-I 0 W/m 15,0 C 17,0 C 2,7 km/h (1 Bft) 98,09 %
20.07.2016 02:00 16,1 C 91 % 1017,5 hPa 0,0 l/m 0,9 km/h (0 Bft) O-SO 0,00 h 0,000 mm 0,0 UV-I 0 W/m 14,6 C 16,1 C 1,9 km/h (1 Bft) 98,15 %
20.07.2016 03:00 15,6 C 92 % 1017,3 hPa 0,0 l/m 0,9 km/h (0 Bft) O-SO 0,00 h 0,000 mm 0,0 UV-I 0 W/m 14,3 C 15,6 C 1,9 km/h (1 Bft) 98,15 %
20.07.2016 04:00 15,1 C 92 % 1017,3 hPa 0,0 l/m 0,4 km/h (0 Bft) O-SO 0,00 h 0,000 mm 0,0 UV-I 0 W/m 13,9 C 15,1 C 0,9 km/h (0 Bft) 98,06 %
20.07.2016 05:00 14,7 C 93 % 1017,4 hPa 0,0 l/m 0,8 km/h (0 Bft) O-SO 0,00 h 0,000 mm 0,0 UV-I 10 W/m 13,7 C 14,7 C 1,7 km/h (1 Bft) 98,64 %
20.07.2016 06:00 15,3 C 93 % 1017,5 hPa 0,0 l/m 0,0 km/h (0 Bft) N 0,10 h 0,000 mm 0,0 UV-I 46 W/m 14,2 C 15,3 C 0,0 km/h (0 Bft) 98,59 %
20.07.2016 07:00 17,7 C 89 % 1017,5 hPa 0,0 l/m 0,5 km/h (0 Bft) O 1,00 h 0,025 mm 0,7 UV-I 211 W/m 15,9 C 17,7 C 1,9 km/h (1 Bft) 98,94 %
20.07.2016 08:00 19,8 C 83 % 1017,3 hPa 0,0 l/m 2,8 km/h (1 Bft) NO 1,00 h 0,127 mm 1,5 UV-I 390 W/m 16,8 C 19,8 C 5,6 km/h (1 Bft) 97,81 %
20.07.2016 09:00 21,7 C 75 % 1017,1 hPa 0,0 l/m 5,0 km/h (1 Bft) NO 1,00 h 0,229 mm 2,9 UV-I 495 W/m 17,0 C 21,7 C 9,1 km/h (2 Bft) 99,02 %
20.07.2016 10:00 23,4 C 70 % 1016,8 hPa 0,0 l/m 5,5 km/h (1 Bft) NO 1,00 h 0,305 mm 4,6 UV-I 689 W/m 17,6 C 23,3 C 9,9 km/h (2 Bft) 97,80 %
20.07.2016 11:00 25,0 C 62 % 1016,6 hPa 0,0 l/m 6,5 km/h (2 Bft) O-NO 1,00 h 0,457 mm 6,1 UV-I 792 W/m 17,2 C 24,9 C 12,1 km/h (2 Bft) 98,87 %
20.07.2016 12:00 26,3 C 54 % 1016,3 hPa 0,0 l/m 6,2 km/h (2 Bft) NO 1,00 h 0,533 mm 7,1 UV-I 853 W/m 16,2 C 26,1 C 11,7 km/h (2 Bft) 97,78 %
20.07.2016 13:00 27,0 C 49 % 1015,9 hPa 0,0 l/m 4,0 km/h (1 Bft) N-NW 1,00 h 0,585 mm 7,4 UV-I 875 W/m 15,4 C 27,0 C 7,8 km/h (2 Bft) 98,19 %
20.07.2016 14:00 28,2 C 42 % 1015,3 hPa 0,0 l/m 3,5 km/h (1 Bft) N 1,00 h 0,584 mm 6,5 UV-I 833 W/m 14,2 C 28,2 C 7,0 km/h (2 Bft) 98,36 %
20.07.2016 15:00 28,6 C 41 % 1014,8 hPa 0,0 l/m 4,3 km/h (1 Bft) O-NO 1,00 h 0,584 mm 5,1 UV-I 756 W/m 13,9 C 28,6 C 7,6 km/h (2 Bft) 98,38 %
20.07.2016 16:00 29,3 C 38 % 1014,4 hPa 0,0 l/m 3,4 km/h (1 Bft) N-NW 1,00 h 0,533 mm 3,4 UV-I 634 W/m 13,6 C 29,3 C 6,6 km/h (2 Bft) 99,05 %
20.07.2016 17:00 29,2 C 39 % 1014,1 hPa 0,0 l/m 2,8 km/h (1 Bft) N-NO 1,00 h 0,458 mm 1,9 UV-I 479 W/m 13,6 C 29,2 C 5,7 km/h (1 Bft) 97,40 %
20.07.2016 18:00 28,7 C 40 % 1013,9 hPa 0,0 l/m 4,0 km/h (1 Bft) N-NO 1,00 h 0,355 mm 0,8 UV-I 313 W/m 13,8 C 28,7 C 7,2 km/h (2 Bft) 99,08 %
20.07.2016 19:00 26,8 C 52 % 1013,8 hPa 0,0 l/m 7,3 km/h (2 Bft) NO 0,77 h 0,254 mm 0,3 UV-I 134 W/m 16,2 C 26,6 C 11,5 km/h (2 Bft) 97,64 %
20.07.2016 20:00 24,8 C 60 % 1013,7 hPa 0,0 l/m 2,4 km/h (1 Bft) O-NO 0,07 h 0,153 mm 0,0 UV-I 19 W/m 16,4 C 24,8 C 3,8 km/h (1 Bft) 98,42 %
20.07.2016 21:00 21,9 C 72 % 1013,8 hPa 0,0 l/m 2,3 km/h (1 Bft) O-NO 0,00 h 0,025 mm 0,0 UV-I 0 W/m 16,5 C 21,9 C 3,8 km/h (1 Bft) 98,18 %
20.07.2016 22:00 21,3 C 73 % 1013,9 hPa 0,0 l/m 3,9 km/h (1 Bft) O-SO 0,00 h 0,025 mm 0,0 UV-I 0 W/m 16,2 C 21,3 C 6,7 km/h (2 Bft) 98,93 %
20.07.2016 23:00 19,0 C 83 % 1014,1 hPa 0,0 l/m 1,3 km/h (1 Bft) SO 0,00 h 0,026 mm 0,0 UV-I 0 W/m 16,0 C 19,0 C 2,7 km/h (1 Bft) 98,53 %
21.07.2016 00:00 18,2 C 86 % 1014,4 hPa 0,0 l/m 1,2 km/h (1 Bft) S 0,00 h 0,000 mm 0,0 UV-I 0 W/m 15,7 C 18,2 C 2,7 km/h (1 Bft) 99,09 %
21.07.2016 01:00 17,2 C 87 % 1014,3 hPa 0,0 l/m 1,1 km/h (1 Bft) S 0,00 h 0,000 mm 0,0 UV-I 0 W/m 15,1 C 17,2 C 2,1 km/h (1 Bft) 97,81 %
21.07.2016 02:00 16,7 C 88 % 1014,2 hPa 0,0 l/m 2,3 km/h (1 Bft) S 0,00 h 0,000 mm 0,0 UV-I 0 W/m 14,7 C 16,7 C 3,4 km/h (1 Bft) 98,50 %
21.07.2016 03:00 15,9 C 89 % 1014,1 hPa 0,0 l/m 1,3 km/h (1 Bft) S 0,00 h 0,000 mm 0,0 UV-I 0 W/m 14,1 C 15,9 C 2,2 km/h (1 Bft) 98,43 %
21.07.2016 04:00 15,1 C 91 % 1013,6 hPa 0,0 l/m 0,7 km/h (0 Bft) S 0,00 h 0,000 mm 0,0 UV-I 0 W/m 13,7 C 15,1 C 1,3 km/h (1 Bft) 98,39 %
21.07.2016 05:00 14,5 C 92 % 1013,4 hPa 0,0 l/m 0,7 km/h (0 Bft) S 0,07 h 0,000 mm 0,0 UV-I 11 W/m 13,3 C 14,5 C 1,4 km/h (1 Bft) 98,23 %
21.07.2016 06:00 15,1 C 92 % 1013,2 hPa 0,0 l/m 1,0 km/h (0 Bft) O-NO 0,20 h 0,000 mm 0,0 UV-I 53 W/m 13,8 C 15,1 C 2,0 km/h (1 Bft) 98,82 %
21.07.2016 07:00 17,5 C 87 % 1013,3 hPa 0,0 l/m 1,8 km/h (1 Bft) O-NO 0,63 h 0,025 mm 0,6 UV-I 185 W/m 15,3 C 17,5 C 3,5 km/h (1 Bft) 97,64 %
21.07.2016 08:00 18,8 C 84 % 1013,4 hPa 0,0 l/m 3,7 km/h (1 Bft) NO 0,50 h 0,102 mm 1,3 UV-I 280 W/m 16,1 C 18,8 C 6,0 km/h (2 Bft) 98,88 %
21.07.2016 09:00 21,1 C 77 % 1013,7 hPa 0,0 l/m 2,5 km/h (1 Bft) NO 0,93 h 0,152 mm 2,9 UV-I 483 W/m 16,9 C 21,1 C 4,8 km/h (1 Bft) 97,61 %
21.07.2016 10:00 23,4 C 66 % 1014,7 hPa 0,0 l/m 10,7 km/h (2 Bft) SW 1,00 h 0,305 mm 4,2 UV-I 616 W/m 16,8 C 22,3 C 16,9 km/h (3 Bft) 99,14 %
21.07.2016 11:00 24,6 C 64 % 1015,1 hPa 0,0 l/m 16,2 km/h (3 Bft) SW 0,50 h 0,432 mm 3,6 UV-I 460 W/m 17,3 C 22,8 C 27,1 km/h (4 Bft) 97,50 %
21.07.2016 12:00 24,8 C 63 % 1015,3 hPa 0,0 l/m 16,8 km/h (3 Bft) W-SW 0,63 h 0,381 mm 5,1 UV-I 650 W/m 17,3 C 22,9 C 26,1 km/h (4 Bft) 98,83 %
21.07.2016 13:00 23,5 C 68 % 1014,8 hPa 0,0 l/m 11,6 km/h (2 Bft) W-SW 0,00 h 0,483 mm 2,2 UV-I 255 W/m 17,4 C 22,2 C 19,2 km/h (3 Bft) 98,11 %
21.07.2016 14:00 23,4 C 71 % 1014,1 hPa 0,0 l/m 5,2 km/h (1 Bft) SW 0,23 h 0,203 mm 3,3 UV-I 425 W/m 17,8 C 23,2 C 8,9 km/h (2 Bft) 98,58 %
21.07.2016 15:00 25,4 C 62 % 1013,3 hPa 0,0 l/m 6,2 km/h (2 Bft) W 0,93 h 0,279 mm 4,2 UV-I 676 W/m 17,4 C 25,2 C 12,1 km/h (2 Bft) 97,80 %
21.07.2016 16:00 26,4 C 54 % 1013,0 hPa 0,0 l/m 5,2 km/h (1 Bft) W-NW 1,00 h 0,457 mm 3,1 UV-I 623 W/m 16,5 C 26,4 C 10,3 km/h (2 Bft) 98,16 %
21.07.2016 17:00 26,8 C 54 % 1012,6 hPa 0,0 l/m 3,5 km/h (1 Bft) N 0,87 h 0,432 mm 1,6 UV-I 403 W/m 16,7 C 26,8 C 6,9 km/h (2 Bft) 98,37 %
21.07.2016 18:00 25,2 C 64 % 1012,4 hPa 0,0 l/m 1,6 km/h (1 Bft) N-NO 0,00 h 0,280 mm 0,6 UV-I 111 W/m 17,8 C 25,2 C 4,1 km/h (1 Bft) 97,78 %
21.07.2016 19:00 23,1 C 77 % 1012,7 hPa 0,2 l/m 2,0 km/h (1 Bft) O-NO 0,00 h 0,076 mm 0,0 UV-I 31 W/m 18,9 C 23,1 C 3,5 km/h (1 Bft) 98,44 %
21.07.2016 20:00 21,8 C 85 % 1012,9 hPa 0,0 l/m 1,1 km/h (1 Bft) O 0,20 h 0,025 mm 0,0 UV-I 24 W/m 19,2 C 21,8 C 2,5 km/h (1 Bft) 97,46 %
21.07.2016 21:00 20,9 C 86 % 1013,1 hPa 0,0 l/m 1,8 km/h (1 Bft) S 0,00 h 0,026 mm 0,0 UV-I 0 W/m 18,5 C 20,9 C 3,6 km/h (1 Bft) 98,59 %
21.07.2016 22:00 19,9 C 89 % 1013,3 hPa 0,0 l/m 2,4 km/h (1 Bft) S 0,00 h 0,000 mm 0,0 UV-I 0 W/m 18,0 C 19,9 C 4,3 km/h (1 Bft) 97,97 %
21.07.2016 23:00 19,4 C 90 % 1013,8 hPa 0,0 l/m 1,5 km/h (1 Bft) S 0,00 h 0,000 mm 0,0 UV-I 0 W/m 17,7 C 19,4 C 2,7 km/h (1 Bft) 98,82 %
22.07.2016 00:00 19,1 C 92 % 1013,9 hPa 0,0 l/m 1,1 km/h (0 Bft) S 0,00 h 0,000 mm 0,0 UV-I 0 W/m 17,8 C 19,1 C 2,5 km/h (1 Bft) 97,94 %
22.07.2016 01:00 19,1 C 93 % 1013,7 hPa 0,0 l/m 3,5 km/h (1 Bft) S 0,00 h 0,000 mm 0,0 UV-I 0 W/m 17,9 C 19,1 C 5,6 km/h (1 Bft) 98,78 %
22.07.2016 02:00 19,1 C 93 % 1014,0 hPa 0,0 l/m 6,9 km/h (2 Bft) S-SW 0,00 h 0,000 mm 0,0 UV-I 0 W/m 17,8 C 18,7 C 10,8 km/h (2 Bft) 97,93 %
22.07.2016 03:00 18,7 C 93 % 1014,0 hPa 0,0 l/m 4,9 km/h (1 Bft) SW 0,00 h 0,000 mm 0,0 UV-I 0 W/m 17,6 C 18,7 C 7,0 km/h (2 Bft) 98,78 %
22.07.2016 04:00 18,7 C 93 % 1013,6 hPa 0,0 l/m 5,8 km/h (2 Bft) SW 0,00 h 0,000 mm 0,0 UV-I 0 W/m 17,6 C 18,5 C 9,4 km/h (2 Bft) 97,53 %
22.07.2016 05:00 18,9 C 93 % 1013,5 hPa 0,0 l/m 5,0 km/h (1 Bft) W-SW 0,00 h 0,000 mm 0,0 UV-I 9 W/m 17,7 C 18,8 C 7,8 km/h (2 Bft) 99,02 %
22.07.2016 06:00 19,2 C 92 % 1013,8 hPa 0,0 l/m 7,3 km/h (2 Bft) W-SW 0,00 h 0,000 mm 0,0 UV-I 50 W/m 17,8 C 18,7 C 11,5 km/h (2 Bft) 98,09 %
22.07.2016 07:00 19,6 C 91 % 1014,2 hPa 0,0 l/m 3,0 km/h (1 Bft) W-SW 0,00 h 0,025 mm 0,2 UV-I 82 W/m 18,1 C 19,5 C 5,9 km/h (2 Bft) 99,13 %
22.07.2016 08:00 20,2 C 89 % 1014,6 hPa 0,0 l/m 3,6 km/h (1 Bft) W 0,27 h 0,051 mm 1,1 UV-I 217 W/m 18,4 C 20,2 C 7,8 km/h (2 Bft) 97,36 %
22.07.2016 09:00 21,5 C 83 % 1014,6 hPa 0,0 l/m 2,8 km/h (1 Bft) W-NW 0,27 h 0,153 mm 2,0 UV-I 329 W/m 18,5 C 21,5 C 6,7 km/h (2 Bft) 99,40 %
22.07.2016 10:00 22,2 C 79 % 1014,5 hPa 0,0 l/m 2,6 km/h (1 Bft) N-NW 0,32 h 0,203 mm 2,6 UV-I 363 W/m 18,4 C 22,2 C 5,6 km/h (1 Bft) 98,05 %
22.07.2016 11:00 23,8 C 75 % 1014,2 hPa 0,0 l/m 3,1 km/h (1 Bft) N-NO 0,67 h 0,228 mm 4,5 UV-I 655 W/m 19,0 C 23,8 C 6,3 km/h (2 Bft) 99,38 %
22.07.2016 12:00 24,5 C 69 % 1013,7 hPa 0,0 l/m 3,4 km/h (1 Bft) O-NO 0,52 h 0,407 mm 4,7 UV-I 511 W/m 18,5 C 24,5 C 6,5 km/h (2 Bft) 98,08 %
22.07.2016 13:00 26,2 C 62 % 1013,2 hPa 0,0 l/m 3,9 km/h (1 Bft) N-NO 0,93 h 0,330 mm 6,3 UV-I 855 W/m 18,4 C 26,2 C 7,3 km/h (2 Bft) 99,47 %
22.07.2016 14:00 27,2 C 56 % 1012,7 hPa 0,0 l/m 5,7 km/h (1 Bft) N-NO 1,00 h 0,559 mm 5,8 UV-I 877 W/m 17,6 C 27,1 C 10,5 km/h (2 Bft) 98,32 %
22.07.2016 15:00 27,5 C 53 % 1012,3 hPa 0,0 l/m 5,3 km/h (1 Bft) NO 0,77 h 0,609 mm 4,1 UV-I 643 W/m 17,0 C 27,5 C 10,0 km/h (2 Bft) 99,53 %
22.07.2016 16:00 27,7 C 52 % 1011,9 hPa 0,0 l/m 10,2 km/h (2 Bft) O-NO 0,70 h 0,458 mm 2,7 UV-I 489 W/m 16,8 C 27,1 C 16,2 km/h (3 Bft) 98,34 %
22.07.2016 17:00 27,4 C 52 % 1011,6 hPa 0,0 l/m 12,2 km/h (2 Bft) O-NO 0,90 h 0,381 mm 1,7 UV-I 431 W/m 16,8 C 26,6 C 18,7 km/h (3 Bft) 99,80 %
22.07.2016 18:00 26,6 C 52 % 1011,6 hPa 0,0 l/m 7,4 km/h (2 Bft) O-NO 0,30 h 0,381 mm 0,7 UV-I 171 W/m 16,0 C 26,3 C 12,0 km/h (2 Bft) 97,81 %
22.07.2016 19:00 24,8 C 61 % 1012,2 hPa 0,0 l/m 1,0 km/h (0 Bft) NO 0,00 h 0,177 mm 0,0 UV-I 37 W/m 16,8 C 24,8 C 2,2 km/h (1 Bft) 98,95 %
22.07.2016 20:00 23,1 C 66 % 1012,7 hPa 0,0 l/m 6,8 km/h (2 Bft) S-SO 0,00 h 0,026 mm 0,0 UV-I 6 W/m 16,5 C 22,4 C 12,5 km/h (3 Bft) 97,84 %
22.07.2016 21:00 20,1 C 85 % 1012,7 hPa 1,6 l/m 6,2 km/h (2 Bft) S-SO 0,00 h 0,051 mm 0,0 UV-I 0 W/m 17,4 C 19,7 C 11,3 km/h (2 Bft) 99,29 %
22.07.2016 22:00 18,8 C 92 % 1013,5 hPa 0,4 l/m 4,7 km/h (1 Bft) SW 0,00 h 0,025 mm 0,0 UV-I 0 W/m 17,5 C 18,7 C 8,3 km/h (2 Bft) 97,95 %
22.07.2016 23:00 18,3 C 93 % 1013,5 hPa 0,0 l/m 2,7 km/h (1 Bft) S-SW 0,00 h 0,000 mm 0,0 UV-I 0 W/m 17,2 C 18,3 C 4,9 km/h (1 Bft) 98,94 %
23.07.2016 00:00 18,1 C 95 % 1013,7 hPa 0,0 l/m 0,7 km/h (0 Bft) O 0,00 h 0,000 mm 0,0 UV-I 0 W/m 17,3 C 18,1 C 1,9 km/h (1 Bft) 98,14 %
23.07.2016 01:00 17,8 C 96 % 1013,8 hPa 0,0 l/m 1,3 km/h (1 Bft) S-SO 0,00 h 0,000 mm 0,0 UV-I 0 W/m 17,1 C 17,8 C 2,5 km/h (1 Bft) 98,96 %
23.07.2016 02:00 17,7 C 96 % 1013,7 hPa 0,0 l/m 0,7 km/h (0 Bft) S 0,00 h 0,000 mm 0,0 UV-I 0 W/m 17,1 C 17,7 C 1,8 km/h (1 Bft) 98,05 %
23.07.2016 03:00 17,8 C 95 % 1013,8 hPa 0,0 l/m 0,6 km/h (0 Bft) S 0,00 h 0,000 mm 0,0 UV-I 0 W/m 17,0 C 17,8 C 1,2 km/h (1 Bft) 98,83 %
23.07.2016 04:00 17,6 C 96 % 1013,8 hPa 0,0 l/m 1,1 km/h (1 Bft) S 0,00 h 0,000 mm 0,0 UV-I 0 W/m 16,9 C 17,6 C 2,3 km/h (1 Bft) 98,58 %
23.07.2016 05:00 17,1 C 96 % 1014,3 hPa 0,0 l/m 3,3 km/h (1 Bft) S-SW 0,00 h 0,000 mm 0,0 UV-I 8 W/m 16,5 C 17,1 C 5,2 km/h (1 Bft) 98,95 %
23.07.2016 06:00 17,0 C 96 % 1014,5 hPa 0,0 l/m 5,5 km/h (1 Bft) S-SW 0,00 h 0,000 mm 0,0 UV-I 43 W/m 16,3 C 16,9 C 8,8 km/h (2 Bft) 98,60 %
23.07.2016 07:00 18,8 C 92 % 1014,6 hPa 0,0 l/m 5,0 km/h (1 Bft) SW 0,77 h 0,025 mm 0,6 UV-I 221 W/m 17,5 C 18,8 C 8,1 km/h (2 Bft) 98,93 %
23.07.2016 08:00 20,7 C 86 % 1014,7 hPa 0,0 l/m 2,9 km/h (1 Bft) W 0,57 h 0,127 mm 1,3 UV-I 300 W/m 18,1 C 20,6 C 5,3 km/h (1 Bft) 98,41 %
23.07.2016 09:00 22,3 C 78 % 1014,6 hPa 0,0 l/m 3,3 km/h (1 Bft) W 1,00 h 0,178 mm 2,8 UV-I 514 W/m 18,3 C 22,3 C 6,6 km/h (2 Bft) 98,81 %
23.07.2016 10:00 23,5 C 74 % 1014,7 hPa 0,0 l/m 3,5 km/h (1 Bft) W-SW 1,00 h 0,330 mm 4,2 UV-I 675 W/m 18,5 C 23,5 C 7,1 km/h (2 Bft) 98,88 %
23.07.2016 11:00 24,7 C 68 % 1014,6 hPa 0,0 l/m 4,0 km/h (1 Bft) S 0,83 h 0,432 mm 5,0 UV-I 660 W/m 18,5 C 24,7 C 7,0 km/h (2 Bft) 98,49 %
23.07.2016 12:00 26,1 C 61 % 1014,4 hPa 0,0 l/m 3,3 km/h (1 Bft) S-SW 1,00 h 0,432 mm 6,5 UV-I 827 W/m 18,1 C 26,1 C 6,6 km/h (2 Bft) 99,09 %
23.07.2016 13:00 27,0 C 59 % 1014,1 hPa 0,0 l/m 3,7 km/h (1 Bft) S 1,00 h 0,533 mm 6,6 UV-I 840 W/m 18,3 C 26,9 C 7,4 km/h (2 Bft) 98,44 %
23.07.2016 14:00 27,9 C 57 % 1013,8 hPa 0,0 l/m 4,3 km/h (1 Bft) NO 1,00 h 0,559 mm 5,8 UV-I 782 W/m 18,6 C 27,9 C 7,9 km/h (2 Bft) 99,14 %
23.07.2016 15:00 28,2 C 54 % 1013,5 hPa 0,0 l/m 4,0 km/h (1 Bft) O-SO 1,00 h 0,534 mm 4,1 UV-I 631 W/m 18,0 C 28,2 C 7,8 km/h (2 Bft) 98,20 %
23.07.2016 16:00 28,2 C 54 % 1013,1 hPa 0,0 l/m 3,8 km/h (1 Bft) N-NO 0,50 h 0,431 mm 2,3 UV-I 369 W/m 18,0 C 28,2 C 7,1 km/h (2 Bft) 99,28 %
23.07.2016 17:00 27,8 C 58 % 1012,8 hPa 0,0 l/m 4,4 km/h (1 Bft) N-NO 0,40 h 0,280 mm 1,1 UV-I 275 W/m 18,9 C 27,8 C 8,1 km/h (2 Bft) 97,30 %
23.07.2016 18:00 27,4 C 61 % 1012,6 hPa 0,0 l/m 5,8 km/h (2 Bft) O-NO 0,10 h 0,228 mm 0,7 UV-I 112 W/m 19,1 C 27,3 C 9,5 km/h (2 Bft) 98,87 %
23.07.2016 19:00 25,2 C 74 % 1012,5 hPa 0,2 l/m 2,3 km/h (1 Bft) O-NO 0,00 h 0,102 mm 0,0 UV-I 20 W/m 20,2 C 25,2 C 3,8 km/h (1 Bft) 97,60 %
23.07.2016 20:00 23,6 C 82 % 1012,3 hPa 0,0 l/m 1,6 km/h (1 Bft) O-NO 0,00 h 0,025 mm 0,0 UV-I 8 W/m 20,3 C 23,6 C 2,8 km/h (1 Bft) 98,94 %
23.07.2016 21:00 21,3 C 88 % 1013,3 hPa 33,6 l/m 15,2 km/h (3 Bft) W-SW 0,00 h 0,000 mm 0,0 UV-I 0 W/m 19,2 C 18,8 C 24,2 km/h (4 Bft) 97,60 %
23.07.2016 22:00 18,8 C 95 % 1014,9 hPa 21,8 l/m 6,8 km/h (2 Bft) SW 0,00 h 0,026 mm 0,0 UV-I 0 W/m 18,0 C 18,4 C 13,3 km/h (3 Bft) 98,87 %
23.07.2016 23:00 18,9 C 96 % 1015,3 hPa 0,8 l/m 8,6 km/h (2 Bft) S-SW 0,00 h 0,000 mm 0,0 UV-I 0 W/m 18,2 C 18,0 C 13,5 km/h (3 Bft) 97,58 %
24.07.2016 00:00 18,7 C 96 % 1015,8 hPa 0,4 l/m 8,3 km/h (2 Bft) SW 0,00 h 0,000 mm 0,0 UV-I 0 W/m 18,1 C 17,9 C 13,2 km/h (3 Bft) 98,78 %
24.07.2016 01:00 18,6 C 96 % 1015,6 hPa 0,0 l/m 9,9 km/h (2 Bft) W-SW 0,00 h 0,000 mm 0,0 UV-I 0 W/m 18,0 C 17,2 C 15,2 km/h (3 Bft) 97,64 %
24.07.2016 02:00 18,4 C 96 % 1015,7 hPa 0,0 l/m 11,1 km/h (2 Bft) W-SW 0,00 h 0,000 mm 0,0 UV-I 0 W/m 17,8 C 16,5 C 16,7 km/h (3 Bft) 99,36 %
24.07.2016 03:00 18,3 C 95 % 1016,2 hPa 0,0 l/m 9,1 km/h (2 Bft) W-SW 0,00 h 0,000 mm 0,0 UV-I 0 W/m 17,6 C 17,2 C 14,4 km/h (3 Bft) 97,56 %
24.07.2016 04:00 18,1 C 95 % 1016,1 hPa 0,0 l/m 5,3 km/h (1 Bft) SW 0,00 h 0,000 mm 0,0 UV-I 0 W/m 17,3 C 17,7 C 8,4 km/h (2 Bft) 98,68 %
24.07.2016 05:00 18,3 C 95 % 1016,1 hPa 0,0 l/m 6,1 km/h (2 Bft) SW 0,00 h 0,000 mm 0,0 UV-I 5 W/m 17,4 C 18,1 C 10,2 km/h (2 Bft) 97,98 %
24.07.2016 06:00 18,7 C 94 % 1016,4 hPa 0,0 l/m 6,5 km/h (2 Bft) SW 0,00 h 0,000 mm 0,0 UV-I 31 W/m 17,7 C 18,5 C 10,5 km/h (2 Bft) 98,87 %
24.07.2016 07:00 19,0 C 93 % 1016,5 hPa 0,0 l/m 8,1 km/h (2 Bft) SW 0,00 h 0,025 mm 0,0 UV-I 62 W/m 17,9 C 18,2 C 13,1 km/h (3 Bft) 97,52 %
24.07.2016 08:00 19,0 C 94 % 1016,7 hPa 0,0 l/m 8,2 km/h (2 Bft) SW 0,00 h 0,051 mm 0,5 UV-I 83 W/m 18,1 C 18,3 C 13,6 km/h (3 Bft) 99,44 %
24.07.2016 09:00 19,8 C 91 % 1016,9 hPa 0,0 l/m 7,3 km/h (2 Bft) W-SW 0,00 h 0,051 mm 1,0 UV-I 160 W/m 18,2 C 19,3 C 11,8 km/h (2 Bft) 97,85 %
24.07.2016 10:00 21,0 C 87 % 1017,0 hPa 0,0 l/m 6,5 km/h (2 Bft) W-SW 0,00 h 0,102 mm 2,1 UV-I 289 W/m 18,8 C 20,8 C 11,3 km/h (2 Bft) 99,09 %
24.07.2016 11:00 22,3 C 82 % 1016,9 hPa 0,0 l/m 6,9 km/h (2 Bft) W-SW 0,63 h 0,177 mm 3,8 UV-I 478 W/m 19,0 C 22,0 C 11,7 km/h (2 Bft) 97,58 %
24.07.2016 12:00 23,7 C 76 % 1016,7 hPa 0,0 l/m 6,3 km/h (2 Bft) W-SW 0,80 h 0,305 mm 5,4 UV-I 652 W/m 19,3 C 23,5 C 11,9 km/h (2 Bft) 99,35 %
24.07.2016 13:00 24,8 C 69 % 1016,5 hPa 0,0 l/m 4,5 km/h (1 Bft) S-SW 0,70 h 0,432 mm 5,9 UV-I 694 W/m 18,8 C 24,7 C 8,8 km/h (2 Bft) 97,59 %
24.07.2016 14:00 25,7 C 65 % 1016,3 hPa 0,0 l/m 4,4 km/h (1 Bft) SW 0,70 h 0,457 mm 5,3 UV-I 662 W/m 18,7 C 25,7 C 8,1 km/h (2 Bft) 98,79 %
24.07.2016 15:00 26,5 C 62 % 1015,7 hPa 0,0 l/m 4,2 km/h (1 Bft) N-NO 0,60 h 0,483 mm 4,2 UV-I 627 W/m 18,7 C 26,5 C 8,9 km/h (2 Bft) 97,74 %
24.07.2016 16:00 27,3 C 58 % 1015,2 hPa 0,0 l/m 3,9 km/h (1 Bft) NO 1,00 h 0,432 mm 3,3 UV-I 674 W/m 18,2 C 27,3 C 6,8 km/h (2 Bft) 98,87 %
24.07.2016 17:00 27,4 C 55 % 1014,8 hPa 0,0 l/m 3,6 km/h (1 Bft) N-NO 0,70 h 0,457 mm 1,7 UV-I 431 W/m 17,4 C 27,4 C 6,1 km/h (2 Bft) 98,53 %
24.07.2016 18:00 26,8 C 58 % 1014,7 hPa 0,0 l/m 4,0 km/h (1 Bft) NO 0,50 h 0,305 mm 0,7 UV-I 227 W/m 17,7 C 26,8 C 6,6 km/h (2 Bft) 98,11 %
24.07.2016 19:00 25,8 C 65 % 1014,9 hPa 0,0 l/m 2,7 km/h (1 Bft) O-NO 0,37 h 0,177 mm 0,0 UV-I 88 W/m 18,7 C 25,8 C 4,4 km/h (1 Bft) 99,00 %
24.07.2016 20:00 24,1 C 76 % 1015,1 hPa 0,0 l/m 1,0 km/h (0 Bft) O-NO 0,20 h 0,077 mm 0,0 UV-I 22 W/m 19,5 C 24,1 C 2,1 km/h (1 Bft) 98,16 %
24.07.2016 21:00 21,7 C 84 % 1015,4 hPa 0,0 l/m 0,1 km/h (0 Bft) N 0,00 h 0,025 mm 0,0 UV-I 0 W/m 18,8 C 21,7 C 0,7 km/h (0 Bft) 98,64 %
24.07.2016 22:00 20,7 C 87 % 1015,5 hPa 0,0 l/m 0,9 km/h (0 Bft) O-NO 0,00 h 0,000 mm 0,0 UV-I 0 W/m 18,5 C 20,7 C 1,9 km/h (1 Bft) 97,68 %
24.07.2016 23:00 20,0 C 89 % 1015,5 hPa 0,0 l/m 1,5 km/h (1 Bft) O-NO 0,00 h 0,000 mm 0,0 UV-I 0 W/m 18,1 C 20,0 C 2,4 km/h (1 Bft) 99,18 %
Min-Datum _ 19.07.16 20.07.16 22.07.16 - 18.07.16 - - - - - 20.07.16 19.07.16 18.07.16 19.07.16
_ Min-Zeit 05:56 16:04 17:58 - 00:20 - - - - - 16:04 05:56 00:20 08:38
Minimum _ 14,1 C 35 % 1011,4 hPa - 0,0 km/h (0 Bft) - - - - - 11,8 C 14,1 C 0,0 km/h (0 Bft) 89,36 %
Max-Datum _ 20.07.16 18.07.16 19.07.16 23.07.16 21.07.16 - 22.07.16 19.07.16 18.07.16 21.07.16 23.07.16 20.07.16 21.07.16 18.07.16
_ Max-Zeit 16:22 05:42 07:34 21:42 12:10 - 10:30 14:00 13:16 12:16 19:46 16:22 11:40 00:00
Maximum _ 29,6 C 98 % 1020,5 hPa 33,6 l/m 29,5 km/h
W-SW (5 Bft)
- 0,08 h 0,610 mm 7,7 UV-I 1141 W/m 20,9 C 29,6 C 43,5 km/h
W-SW (6 Bft)
100,00 %
Durchschnitt _ 21,6 C 77 % 1015,9 hPa #63,6 l/m 4,4 km/h (1 Bft) S #61:46 h #29,871 mm 3,3 UV-I 383 W/m 16,8 C 21,3 C 7,7 km/h (2 Bft) 98,40 %